createdAt,value
2023-05-13T00:04:02.840Z,12.18
2023-05-13T00:09:04.176Z,12.05
2023-05-13T00:14:06.413Z,11.99
2023-05-13T00:19:07.820Z,11.87
2023-05-13T00:24:09.112Z,11.75
2023-05-13T00:29:10.283Z,11.64
2023-05-13T00:34:11.949Z,11.51
2023-05-13T00:39:13.344Z,11.45
2023-05-13T00:44:14.708Z,11.44
2023-05-13T00:49:15.947Z,11.40
2023-05-13T00:54:17.161Z,11.41
2023-05-13T00:59:18.317Z,11.39
2023-05-13T01:04:19.529Z,11.30
2023-05-13T01:09:20.678Z,11.34
2023-05-13T01:14:22.094Z,11.30
2023-05-13T01:19:23.304Z,11.33
2023-05-13T01:24:24.499Z,11.31
2023-05-13T01:29:25.978Z,11.25
2023-05-13T01:34:27.271Z,11.15
2023-05-13T01:39:28.470Z,11.11
2023-05-13T01:44:29.680Z,10.99
2023-05-13T01:49:30.942Z,11.06
2023-05-13T01:54:32.243Z,11.03
2023-05-13T01:59:33.435Z,11.01
2023-05-13T02:04:34.676Z,10.97
2023-05-13T02:09:35.945Z,10.85
2023-05-13T02:14:38.503Z,10.74
2023-05-13T02:19:39.720Z,10.72
2023-05-13T02:24:41.137Z,10.69
2023-05-13T02:29:42.314Z,10.71
2023-05-13T02:34:43.666Z,10.72
2023-05-13T02:39:45.139Z,10.73
2023-05-13T02:44:46.473Z,10.75
2023-05-13T02:49:47.692Z,10.78
2023-05-13T02:54:49.130Z,10.77
2023-05-13T02:59:50.485Z,10.72
2023-05-13T03:04:51.710Z,10.68
2023-05-13T03:09:52.943Z,10.64
2023-05-13T03:14:54.208Z,10.65
2023-05-13T03:19:55.553Z,10.66
2023-05-13T03:24:58.229Z,10.70
2023-05-13T03:29:59.443Z,10.71
2023-05-13T03:35:01.003Z,10.76
2023-05-13T03:40:02.367Z,10.76
2023-05-13T03:45:03.567Z,10.78
2023-05-13T03:50:04.837Z,10.78
2023-05-13T03:55:06.579Z,10.81
2023-05-13T04:00:07.821Z,10.76
2023-05-13T04:05:09.538Z,10.67
2023-05-13T04:10:13.810Z,10.61
2023-05-13T04:15:16.553Z,10.71
2023-05-13T04:20:17.867Z,10.74
2023-05-13T04:25:19.125Z,10.76
2023-05-13T04:30:20.651Z,10.81
2023-05-13T04:35:22.068Z,10.81
2023-05-13T04:40:23.494Z,10.83
2023-05-13T04:45:24.920Z,10.82
2023-05-13T04:50:26.303Z,10.82
2023-05-13T04:55:28.087Z,10.87
2023-05-13T05:00:29.392Z,10.95
2023-05-13T05:05:30.575Z,10.99
2023-05-13T05:10:31.852Z,11.05
2023-05-13T05:15:33.075Z,11.24
2023-05-13T05:20:34.398Z,11.37
2023-05-13T05:25:35.689Z,11.49
2023-05-13T05:30:39.580Z,11.61
2023-05-13T05:35:41.653Z,11.73
2023-05-13T05:40:42.838Z,11.94
2023-05-13T05:45:44.083Z,12.15
2023-05-13T05:50:45.351Z,12.28
2023-05-13T05:55:46.588Z,12.41
2023-05-13T06:00:47.780Z,12.55
2023-05-13T06:05:49.005Z,12.77
2023-05-13T06:10:50.415Z,13.05
2023-05-13T06:15:51.671Z,13.38
2023-05-13T06:20:52.879Z,13.66
2023-05-13T06:25:54.804Z,13.69
2023-05-13T06:30:56.604Z,13.60
2023-05-13T06:35:57.802Z,13.37
2023-05-13T06:40:58.978Z,13.25
2023-05-13T06:46:00.957Z,13.31
2023-05-13T06:51:02.149Z,13.46
2023-05-13T06:56:03.478Z,13.65
2023-05-13T07:01:04.774Z,13.73
2023-05-13T07:06:06.004Z,13.72
2023-05-13T07:11:07.210Z,13.75
2023-05-13T07:16:08.442Z,13.96
2023-05-13T07:21:09.709Z,14.25
2023-05-13T07:26:11.068Z,14.46
2023-05-13T07:31:12.319Z,14.65
2023-05-13T07:36:13.510Z,14.77
2023-05-13T07:41:14.702Z,14.87
2023-05-13T07:46:15.902Z,14.98
2023-05-13T07:51:18.426Z,15.23
2023-05-13T07:56:19.629Z,15.58
2023-05-13T08:01:20.843Z,15.94
2023-05-13T08:06:22.054Z,16.44
2023-05-13T08:11:23.230Z,16.72
2023-05-13T08:16:24.592Z,16.94
2023-05-13T08:21:25.820Z,17.38
2023-05-13T08:26:26.972Z,17.72
2023-05-13T08:31:28.244Z,17.72
2023-05-13T08:36:29.570Z,17.59
2023-05-13T08:41:31.775Z,17.62
2023-05-13T08:46:32.993Z,17.95
2023-05-13T08:51:34.249Z,18.47
2023-05-13T08:56:35.539Z,18.30
2023-05-13T09:01:36.726Z,18.59
2023-05-13T09:06:37.925Z,19.16
2023-05-13T09:11:41.500Z,19.59
2023-05-13T09:16:43.876Z,19.98
2023-05-13T09:21:45.199Z,20.68
2023-05-13T09:26:46.494Z,21.20
2023-05-13T09:31:48.807Z,21.37
2023-05-13T09:36:51.187Z,21.72
2023-05-13T09:41:52.617Z,22.10
2023-05-13T09:46:53.854Z,22.86
2023-05-13T09:51:55.094Z,23.37
2023-05-13T09:56:56.300Z,23.54
2023-05-13T10:02:00.142Z,23.99
2023-05-13T10:07:01.435Z,24.27
2023-05-13T10:12:02.639Z,24.61
2023-05-13T10:17:05.251Z,24.21
2023-05-13T10:22:06.549Z,24.75
2023-05-13T10:27:08.398Z,23.30
2023-05-13T10:32:09.755Z,22.07
2023-05-13T10:37:10.976Z,22.14
2023-05-13T10:42:12.137Z,22.94
2023-05-13T10:47:13.342Z,22.72
2023-05-13T10:52:15.145Z,21.94
2023-05-13T10:57:17.791Z,21.94
2023-05-13T11:02:19.578Z,21.82
2023-05-13T11:07:21.536Z,21.45
2023-05-13T11:12:22.747Z,21.07
2023-05-13T11:17:23.988Z,21.12
2023-05-13T11:22:25.342Z,20.70
2023-05-13T11:27:26.528Z,19.94
2023-05-13T11:32:27.664Z,19.80
2023-05-13T11:37:30.831Z,19.92
2023-05-13T11:42:32.018Z,19.99
2023-05-13T11:47:33.228Z,19.99
2023-05-13T11:52:34.785Z,19.98
2023-05-13T11:57:36.435Z,20.04
2023-05-13T12:02:38.560Z,20.15
2023-05-13T12:07:40.092Z,19.98
2023-05-13T12:12:41.340Z,19.91
2023-05-13T12:17:42.669Z,20.02
2023-05-13T12:22:43.927Z,20.05
2023-05-13T12:27:45.230Z,19.88
2023-05-13T12:32:47.447Z,19.78
2023-05-13T12:37:50.028Z,19.85
2023-05-13T12:42:51.291Z,20.13
2023-05-13T12:47:52.560Z,20.89
2023-05-13T12:52:53.845Z,21.63
2023-05-13T12:57:55.334Z,21.08
2023-05-13T13:02:56.665Z,19.84
2023-05-13T13:07:58.036Z,18.53
2023-05-13T13:12:59.296Z,18.79
2023-05-13T13:18:00.546Z,20.01
2023-05-13T13:23:02.055Z,20.27
2023-05-13T13:28:03.261Z,20.62
2023-05-13T13:33:04.417Z,21.26
2023-05-13T13:38:05.626Z,21.59
2023-05-13T13:43:06.769Z,22.10
2023-05-13T13:48:08.112Z,22.22
2023-05-13T13:53:09.429Z,22.66
2023-05-13T13:58:10.681Z,23.02
2023-05-13T14:03:12.037Z,22.93
2023-05-13T14:08:13.349Z,23.10
2023-05-13T14:13:14.502Z,22.83
2023-05-13T14:18:15.710Z,21.96
2023-05-13T14:23:16.902Z,21.17
2023-05-13T14:28:18.382Z,21.53
2023-05-13T14:33:19.599Z,22.00
2023-05-13T14:38:20.815Z,22.12
2023-05-13T14:43:22.058Z,21.86
2023-05-13T14:48:23.647Z,21.54
2023-05-13T14:53:24.863Z,21.55
2023-05-13T14:58:26.245Z,21.47
2023-05-13T15:03:27.521Z,21.87
2023-05-13T15:08:28.761Z,22.28
2023-05-13T15:13:34.991Z,22.11
2023-05-13T15:18:36.261Z,22.07
2023-05-13T15:23:37.468Z,22.23
2023-05-13T15:28:38.705Z,21.88
2023-05-13T15:33:39.945Z,20.81
2023-05-13T15:38:41.330Z,20.61
2023-05-13T15:43:42.461Z,19.83
2023-05-13T15:48:43.854Z,18.90
2023-05-13T15:53:45.042Z,18.52
2023-05-13T15:58:46.284Z,18.08
2023-05-13T16:03:47.505Z,17.88
2023-05-13T16:08:48.942Z,17.80
2023-05-13T16:13:50.144Z,17.68
2023-05-13T16:18:52.115Z,17.77
2023-05-13T16:23:53.360Z,17.75
2023-05-13T16:28:54.553Z,17.88
2023-05-13T16:33:55.687Z,17.84
2023-05-13T16:38:57.297Z,18.04
2023-05-13T16:43:58.535Z,17.97
2023-05-13T16:49:00.361Z,18.07
2023-05-13T16:54:01.679Z,18.07
2023-05-13T16:59:02.884Z,18.26
2023-05-13T17:04:04.190Z,18.29
2023-05-13T17:09:05.884Z,18.24
2023-05-13T17:14:07.110Z,18.32
2023-05-13T17:19:08.523Z,18.30
2023-05-13T17:24:09.787Z,18.23
2023-05-13T17:29:10.980Z,18.24
2023-05-13T17:34:12.226Z,18.20
2023-05-13T17:39:13.382Z,18.22
2023-05-13T17:44:15.073Z,18.21
2023-05-13T17:49:16.354Z,18.18
2023-05-13T17:54:17.686Z,18.28
2023-05-13T17:59:18.858Z,18.24
2023-05-13T18:04:21.030Z,18.22
2023-05-13T18:09:22.230Z,18.22
2023-05-13T18:14:23.388Z,18.19
2023-05-13T18:19:24.582Z,18.19
2023-05-13T18:24:25.760Z,18.13
2023-05-13T18:29:26.940Z,18.03
2023-05-13T18:34:28.103Z,17.95
2023-05-13T18:39:29.315Z,17.87
2023-05-13T18:44:30.604Z,17.81
2023-05-13T18:49:32.749Z,17.58
2023-05-13T18:54:34.020Z,17.19
2023-05-13T18:59:35.274Z,16.93
2023-05-13T19:04:36.839Z,16.71
2023-05-13T19:09:38.037Z,16.47
2023-05-13T19:14:39.242Z,16.29
2023-05-13T19:19:41.038Z,16.05
2023-05-13T19:24:42.218Z,15.81
2023-05-13T19:29:43.437Z,15.56
2023-05-13T19:34:44.682Z,15.35
2023-05-13T19:39:46.009Z,15.18
2023-05-13T19:44:47.612Z,15.07
2023-05-13T19:49:48.842Z,14.96
2023-05-13T19:54:50.055Z,14.76
2023-05-13T19:59:51.722Z,14.70
2023-05-13T20:04:52.948Z,14.53
2023-05-13T20:09:54.097Z,14.37
2023-05-13T20:14:59.239Z,14.19
2023-05-13T20:20:00.533Z,13.98
2023-05-13T20:25:01.810Z,13.90
2023-05-13T20:30:03.099Z,13.83
2023-05-13T20:35:04.228Z,13.84
2023-05-13T20:40:05.514Z,13.64
2023-05-13T20:45:08.597Z,13.48
2023-05-13T20:50:09.914Z,13.43
2023-05-13T20:55:11.055Z,13.35
2023-05-13T21:00:12.661Z,13.30
2023-05-13T21:05:13.874Z,13.19
2023-05-13T21:10:15.996Z,13.10
2023-05-13T21:15:17.216Z,13.04
2023-05-13T21:20:18.440Z,12.88
2023-05-13T21:25:19.829Z,12.73
2023-05-13T21:30:21.355Z,12.64
2023-05-13T21:35:22.700Z,12.61
2023-05-13T21:40:24.070Z,12.55
2023-05-13T21:45:25.499Z,12.42
2023-05-13T21:50:26.718Z,12.36
2023-05-13T21:55:27.947Z,12.26
2023-05-13T22:00:29.190Z,12.14
2023-05-13T22:05:30.473Z,12.01
2023-05-13T22:10:31.660Z,11.88
2023-05-13T22:15:32.880Z,11.82
2023-05-13T22:20:34.103Z,11.75
2023-05-13T22:25:35.330Z,11.76
2023-05-13T22:30:36.626Z,11.72
2023-05-13T22:35:39.166Z,11.65
2023-05-13T22:40:40.679Z,11.62
2023-05-13T22:45:41.966Z,11.50
2023-05-13T22:50:43.178Z,11.41
2023-05-13T22:55:44.439Z,11.33
2023-05-13T23:00:46.108Z,11.29
2023-05-13T23:05:47.335Z,11.32
2023-05-13T23:10:48.561Z,11.40
2023-05-13T23:15:49.863Z,11.48
2023-05-13T23:20:51.197Z,11.36
2023-05-13T23:25:52.429Z,11.35
2023-05-13T23:30:54.136Z,11.30
2023-05-13T23:35:55.339Z,11.30
2023-05-13T23:40:56.552Z,11.31
2023-05-13T23:45:57.809Z,11.32
2023-05-13T23:50:59.112Z,11.36
2023-05-13T23:56:00.299Z,11.23
